createdAt,value
2022-12-03T00:01:13.481Z,15.57
2022-12-03T00:03:40.104Z,13.93
2022-12-03T00:06:06.981Z,14.50
2022-12-03T00:08:33.464Z,14.73
2022-12-03T00:10:59.926Z,14.17
2022-12-03T00:13:26.389Z,14.00
2022-12-03T00:15:52.918Z,15.20
2022-12-03T00:18:19.411Z,14.17
2022-12-03T00:20:45.881Z,13.93
2022-12-03T00:23:12.322Z,14.47
2022-12-03T00:25:38.798Z,13.57
2022-12-03T00:28:05.247Z,13.70
2022-12-03T00:30:31.728Z,14.43
2022-12-03T00:32:58.165Z,14.27
2022-12-03T00:35:24.645Z,14.60
2022-12-03T00:37:51.126Z,14.30
2022-12-03T00:40:17.689Z,14.03
2022-12-03T00:42:44.147Z,15.53
2022-12-03T00:45:10.881Z,15.23
2022-12-03T00:47:37.372Z,14.43
2022-12-03T00:50:05.203Z,14.80
2022-12-03T00:52:31.691Z,15.53
2022-12-03T00:54:58.140Z,15.83
2022-12-03T00:57:24.606Z,15.80
2022-12-03T00:59:51.045Z,14.90
2022-12-03T01:02:17.568Z,15.00
2022-12-03T01:04:44.156Z,14.67
2022-12-03T01:07:10.625Z,14.77
2022-12-03T01:09:37.099Z,14.77
2022-12-03T01:12:04.039Z,14.67
2022-12-03T01:14:30.502Z,14.57
2022-12-03T01:16:56.952Z,15.10
2022-12-03T01:19:23.685Z,14.57
2022-12-03T01:21:51.518Z,15.20
2022-12-03T01:24:19.226Z,16.87
2022-12-03T01:26:46.010Z,15.23
2022-12-03T01:29:13.013Z,15.63
2022-12-03T01:31:57.778Z,15.30
2022-12-03T01:34:24.243Z,14.43
2022-12-03T01:36:51.729Z,14.30
2022-12-03T01:39:18.720Z,14.80
2022-12-03T01:41:48.333Z,15.33
2022-12-03T01:44:29.659Z,14.37
2022-12-03T01:47:00.402Z,15.07
2022-12-03T01:49:46.823Z,16.20
2022-12-03T01:52:17.375Z,13.57
2022-12-03T01:55:00.986Z,14.57
2022-12-03T01:57:50.692Z,14.67
2022-12-03T02:00:22.430Z,14.40
2022-12-03T02:02:59.083Z,15.17
2022-12-03T02:05:32.375Z,13.83
2022-12-03T02:08:00.033Z,16.17
2022-12-03T02:10:31.738Z,15.97
2022-12-03T02:13:04.166Z,16.70
2022-12-03T02:15:30.664Z,15.47
2022-12-03T02:17:57.527Z,14.53
2022-12-03T02:20:24.125Z,15.67
2022-12-03T02:25:56.676Z,16.57
2022-12-03T02:28:23.264Z,13.43
2022-12-03T02:30:49.753Z,13.47
2022-12-03T02:33:16.284Z,15.03
2022-12-03T02:35:43.235Z,14.43
2022-12-03T02:38:25.071Z,14.67
2022-12-03T02:40:57.432Z,14.00
2022-12-03T02:43:24.799Z,13.70
2022-12-03T02:45:58.639Z,14.53
2022-12-03T02:48:31.699Z,12.27
2022-12-03T02:51:03.524Z,13.43
2022-12-03T02:53:41.493Z,13.20
2022-12-03T02:56:13.021Z,14.60
2022-12-03T02:58:42.743Z,14.20
2022-12-03T03:01:10.178Z,15.37
2022-12-03T03:03:38.554Z,15.60
2022-12-03T03:06:08.051Z,15.00
2022-12-03T03:08:37.258Z,15.00
2022-12-03T03:11:04.217Z,15.97
2022-12-03T03:13:33.754Z,16.33
2022-12-03T03:16:03.263Z,16.40
2022-12-03T03:18:30.504Z,16.30
2022-12-03T03:20:57.004Z,17.27
2022-12-03T03:23:24.442Z,14.37
2022-12-03T03:26:06.876Z,16.10
2022-12-03T03:28:41.335Z,15.83
2022-12-03T03:31:11.005Z,14.30
2022-12-03T03:33:41.196Z,14.80
2022-12-03T03:36:09.200Z,14.90
2022-12-03T03:38:37.551Z,15.83
2022-12-03T03:41:05.965Z,14.57
2022-12-03T03:43:36.229Z,14.47
2022-12-03T03:46:06.032Z,14.10
2022-12-03T03:48:34.637Z,15.30
2022-12-03T03:51:08.044Z,14.10
2022-12-03T03:53:38.194Z,13.83
2022-12-03T03:56:05.659Z,14.90
2022-12-03T03:58:32.277Z,14.23
2022-12-03T04:01:00.110Z,14.83
2022-12-03T04:03:28.699Z,13.53
2022-12-03T04:05:55.208Z,12.70
2022-12-03T04:08:21.649Z,14.73
2022-12-03T04:11:06.486Z,14.90
2022-12-03T04:13:32.966Z,13.53
2022-12-03T04:15:59.435Z,15.57
2022-12-03T04:18:43.870Z,14.83
2022-12-03T04:21:37.657Z,14.43
2022-12-03T04:24:06.261Z,14.43
2022-12-03T04:26:51.050Z,14.93
2022-12-03T04:29:18.184Z,14.43
2022-12-03T04:32:02.868Z,14.13
2022-12-03T04:34:47.742Z,14.37
2022-12-03T04:37:14.425Z,14.60
2022-12-03T04:39:40.961Z,12.83
2022-12-03T04:42:07.909Z,13.87
2022-12-03T04:44:37.254Z,13.83
2022-12-03T04:47:13.757Z,13.60
2022-12-03T04:49:47.032Z,14.43
2022-12-03T04:52:16.450Z,14.83
2022-12-03T04:54:43.156Z,13.30
2022-12-03T04:57:11.219Z,13.63
2022-12-03T04:59:38.651Z,12.50
2022-12-03T05:02:06.408Z,12.67
2022-12-03T05:04:33.205Z,12.83
2022-12-03T05:06:59.690Z,13.60
2022-12-03T05:09:26.177Z,13.03
2022-12-03T05:11:52.630Z,14.50
2022-12-03T05:14:19.084Z,13.50
2022-12-03T05:16:45.603Z,13.97
2022-12-03T05:19:12.158Z,14.10
2022-12-03T05:21:38.634Z,13.57
2022-12-03T05:24:05.805Z,14.40
2022-12-03T05:26:32.286Z,14.03
2022-12-03T05:28:58.757Z,13.40
2022-12-03T05:31:25.286Z,14.60
2022-12-03T05:33:51.749Z,15.23
2022-12-03T05:36:18.248Z,15.23
2022-12-03T05:38:44.714Z,14.77
2022-12-03T05:41:29.536Z,15.73
2022-12-03T05:43:56.028Z,14.57
2022-12-03T05:46:22.577Z,14.80
2022-12-03T05:48:49.117Z,13.90
2022-12-03T05:51:15.575Z,14.80
2022-12-03T05:53:42.037Z,15.20
2022-12-03T05:56:08.526Z,15.47
2022-12-03T05:58:35.031Z,14.83
2022-12-03T06:01:01.486Z,15.27
2022-12-03T06:03:28.073Z,14.53
2022-12-03T06:05:54.636Z,15.23
2022-12-03T06:08:21.100Z,14.27
2022-12-03T06:10:47.547Z,13.17
2022-12-03T06:13:14.020Z,14.90
2022-12-03T06:15:44.011Z,14.80
2022-12-03T06:18:11.174Z,15.77
2022-12-03T06:20:37.661Z,14.80
2022-12-03T06:23:04.137Z,12.97
2022-12-03T06:25:30.581Z,14.63
2022-12-03T06:27:57.048Z,13.77
2022-12-03T06:30:23.505Z,14.43
2022-12-03T06:32:49.980Z,14.67
2022-12-03T06:35:16.500Z,14.47
2022-12-03T06:37:42.980Z,13.67
2022-12-03T06:40:10.447Z,13.53
2022-12-03T06:42:36.928Z,14.37
2022-12-03T06:45:04.014Z,14.20
2022-12-03T06:47:30.465Z,14.70
2022-12-03T06:49:56.942Z,14.20
2022-12-03T06:52:23.380Z,14.53
2022-12-03T06:54:49.824Z,14.97
2022-12-03T06:57:16.306Z,15.20
2022-12-03T06:59:42.782Z,15.00
2022-12-03T07:02:11.647Z,16.63
2022-12-03T07:04:42.034Z,15.27
2022-12-03T07:07:11.190Z,15.50
2022-12-03T07:09:37.663Z,16.53
2022-12-03T07:12:04.508Z,17.73
2022-12-03T07:14:30.970Z,16.80
2022-12-03T07:16:57.443Z,16.47
2022-12-03T07:19:29.082Z,15.93
2022-12-03T07:21:58.721Z,15.80
2022-12-03T07:24:25.203Z,15.43
2022-12-03T07:26:52.049Z,15.73
2022-12-03T07:29:18.511Z,14.70
2022-12-03T07:31:45.011Z,15.90
2022-12-03T07:34:11.526Z,14.97
2022-12-03T07:36:38.000Z,14.57
2022-12-03T07:39:04.651Z,14.77
2022-12-03T07:41:31.135Z,14.40
2022-12-03T07:43:57.599Z,15.33
2022-12-03T07:46:24.154Z,14.70
2022-12-03T07:48:50.615Z,15.07
2022-12-03T07:51:17.102Z,14.80
2022-12-03T07:53:43.588Z,14.00
2022-12-03T07:56:10.276Z,13.87
2022-12-03T07:58:36.749Z,13.77
2022-12-03T08:01:03.308Z,15.50
2022-12-03T08:03:29.911Z,14.37
2022-12-03T08:05:56.358Z,13.37
2022-12-03T08:08:22.862Z,13.83
2022-12-03T08:10:49.329Z,14.03
2022-12-03T08:13:18.197Z,13.67
2022-12-03T08:15:44.823Z,13.43
2022-12-03T08:18:20.410Z,13.87
2022-12-03T08:20:49.796Z,13.57
2022-12-03T08:23:22.812Z,13.50
2022-12-03T08:25:52.147Z,13.17
2022-12-03T08:28:25.867Z,14.63
2022-12-03T08:31:56.424Z,13.57
2022-12-03T08:34:34.908Z,14.20
2022-12-03T08:37:17.419Z,12.37
2022-12-03T08:39:49.265Z,13.73
2022-12-03T08:42:40.986Z,13.53
2022-12-03T08:45:39.513Z,14.00
2022-12-03T08:48:33.307Z,15.13
2022-12-03T08:51:29.837Z,12.27
2022-12-03T08:54:14.095Z,12.93
2022-12-03T08:56:41.443Z,13.60
2022-12-03T08:59:31.729Z,13.73
2022-12-03T09:02:01.216Z,12.60
2022-12-03T09:04:51.159Z,12.63
2022-12-03T09:07:17.682Z,13.33
2022-12-03T09:09:44.151Z,12.07
2022-12-03T09:12:10.634Z,12.23
2022-12-03T09:14:37.073Z,13.03
2022-12-03T09:17:03.632Z,13.47
2022-12-03T09:19:32.982Z,12.97
2022-12-03T09:21:59.449Z,13.30
2022-12-03T09:24:25.939Z,12.87
2022-12-03T09:26:52.388Z,12.93
2022-12-03T09:29:18.856Z,11.53
2022-12-03T09:31:45.394Z,12.10
2022-12-03T09:34:12.117Z,11.47
2022-12-03T09:36:38.562Z,11.33
2022-12-03T09:39:05.090Z,11.87
2022-12-03T09:41:31.562Z,12.83
2022-12-03T09:44:05.880Z,13.10
2022-12-03T09:46:36.730Z,12.77
2022-12-03T09:49:12.318Z,11.13
2022-12-03T09:51:40.582Z,10.87
2022-12-03T09:54:07.389Z,11.27
2022-12-03T09:56:37.255Z,12.73
2022-12-03T09:59:13.343Z,11.93
2022-12-03T10:01:39.979Z,11.90
2022-12-03T10:04:07.308Z,11.47
2022-12-03T10:06:34.079Z,11.37
2022-12-03T10:09:00.667Z,11.47
2022-12-03T10:11:29.437Z,11.93
2022-12-03T10:13:57.870Z,11.47
2022-12-03T10:16:25.421Z,11.57
2022-12-03T10:18:59.545Z,12.33
2022-12-03T10:21:33.721Z,11.37
2022-12-03T10:24:29.534Z,11.43
2022-12-03T10:26:59.824Z,11.03
2022-12-03T10:29:36.458Z,10.77
2022-12-03T10:32:08.145Z,11.57
2022-12-03T10:34:39.198Z,11.73
2022-12-03T10:37:18.561Z,12.73
2022-12-03T10:40:10.963Z,12.87
2022-12-03T10:42:40.197Z,13.20
2022-12-03T10:45:26.587Z,14.30
2022-12-03T10:48:24.635Z,13.40
2022-12-03T10:51:01.223Z,12.57
2022-12-03T10:53:34.053Z,14.47
2022-12-03T10:56:08.021Z,12.83
2022-12-03T10:58:38.719Z,14.43
2022-12-03T11:01:24.592Z,14.37
2022-12-03T11:03:53.313Z,13.63
2022-12-03T11:06:22.458Z,14.23
2022-12-03T11:08:58.359Z,14.93
2022-12-03T11:11:30.173Z,14.87
2022-12-03T11:13:59.913Z,15.03
2022-12-03T11:20:03.012Z,16.23
2022-12-03T11:22:44.435Z,14.57
2022-12-03T11:25:53.264Z,14.27
2022-12-03T11:28:33.428Z,13.40
2022-12-03T11:31:08.909Z,13.53
2022-12-03T11:33:39.662Z,12.30
2022-12-03T11:36:12.199Z,14.37
2022-12-03T11:38:52.909Z,16.70
2022-12-03T11:41:39.883Z,14.60
2022-12-03T11:44:31.385Z,13.53
2022-12-03T11:47:06.748Z,12.23
2022-12-03T11:49:46.100Z,14.03
2022-12-03T11:52:24.745Z,13.20
2022-12-03T11:55:03.463Z,12.50
2022-12-03T11:57:37.540Z,12.57
2022-12-03T12:01:06.235Z,13.57
2022-12-03T12:03:47.387Z,12.93
2022-12-03T12:06:23.154Z,12.43
2022-12-03T12:08:59.466Z,13.00
2022-12-03T12:11:35.826Z,12.97
2022-12-03T12:14:09.949Z,12.47
2022-12-03T12:17:02.421Z,12.83
2022-12-03T12:19:42.343Z,12.13
2022-12-03T12:22:34.259Z,12.77
2022-12-03T12:25:54.404Z,11.80
2022-12-03T12:28:21.056Z,12.13
2022-12-03T12:30:47.517Z,11.60
2022-12-03T12:33:22.367Z,12.83
2022-12-03T12:35:49.229Z,12.03
2022-12-03T12:38:20.328Z,13.30
2022-12-03T12:40:49.554Z,12.07
2022-12-03T12:43:28.744Z,12.07
2022-12-03T12:46:13.470Z,12.70
2022-12-03T12:48:55.200Z,12.30
2022-12-03T12:51:24.466Z,12.87
2022-12-03T12:53:52.753Z,12.73
2022-12-03T12:56:31.251Z,13.07
2022-12-03T12:59:18.375Z,12.37
2022-12-03T13:01:47.742Z,12.03
2022-12-03T13:04:18.959Z,12.30
2022-12-03T13:06:48.604Z,11.93
2022-12-03T13:09:21.408Z,13.13
2022-12-03T13:11:57.773Z,12.97
2022-12-03T13:14:35.836Z,12.10
2022-12-03T13:17:15.104Z,13.67
2022-12-03T13:19:47.571Z,11.00
2022-12-03T13:22:20.404Z,11.90
2022-12-03T13:24:50.762Z,11.60
2022-12-03T13:27:29.227Z,11.83
2022-12-03T13:30:18.284Z,12.37
2022-12-03T13:32:44.832Z,12.30
2022-12-03T13:35:35.197Z,11.83
2022-12-03T13:38:09.724Z,12.47
2022-12-03T13:40:37.234Z,11.70
2022-12-03T13:43:11.319Z,12.07
2022-12-03T13:45:41.011Z,12.77
2022-12-03T13:48:34.342Z,12.00
2022-12-03T13:51:25.372Z,11.33
2022-12-03T13:53:53.289Z,12.60
2022-12-03T13:56:37.713Z,11.93
2022-12-03T13:59:04.171Z,13.10
2022-12-03T14:01:30.722Z,12.07
2022-12-03T14:03:57.247Z,11.53
2022-12-03T14:06:23.723Z,13.43
2022-12-03T14:08:50.716Z,12.17
2022-12-03T14:11:35.369Z,12.20
2022-12-03T14:14:01.863Z,12.27
2022-12-03T14:16:28.517Z,12.20
2022-12-03T14:18:55.024Z,12.07
2022-12-03T14:21:21.495Z,12.13
2022-12-03T14:23:48.056Z,12.27
2022-12-03T14:26:14.625Z,12.23
2022-12-03T14:28:41.140Z,11.50
2022-12-03T14:31:07.705Z,11.13
2022-12-03T14:33:34.184Z,11.27
2022-12-03T14:36:00.637Z,12.27
2022-12-03T14:38:27.100Z,11.27
2022-12-03T14:40:53.551Z,11.23
2022-12-03T14:43:20.022Z,11.53
2022-12-03T14:45:46.523Z,12.23
2022-12-03T14:48:13.052Z,13.27
2022-12-03T14:50:39.518Z,12.10
2022-12-03T14:53:05.969Z,12.20
2022-12-03T14:55:32.473Z,12.40
2022-12-03T14:57:58.928Z,12.27
2022-12-03T15:00:25.493Z,12.83
2022-12-03T15:02:52.029Z,12.37
2022-12-03T15:05:26.449Z,13.27
2022-12-03T15:07:55.007Z,13.47
2022-12-03T15:10:21.533Z,13.33
2022-12-03T15:12:47.996Z,13.50
2022-12-03T15:15:14.533Z,14.17
2022-12-03T15:17:41.105Z,13.53
2022-12-03T15:20:08.567Z,12.83
2022-12-03T15:22:35.022Z,13.60
2022-12-03T15:25:02.707Z,13.93
2022-12-03T15:27:29.223Z,13.17
2022-12-03T15:29:55.958Z,13.07
2022-12-03T15:32:22.644Z,14.57
2022-12-03T15:34:50.593Z,13.03
2022-12-03T15:37:17.646Z,14.13
2022-12-03T15:39:52.795Z,13.17
2022-12-03T15:42:19.289Z,13.23
2022-12-03T15:44:45.754Z,13.33
2022-12-03T15:47:12.193Z,12.83
2022-12-03T15:49:38.650Z,13.90
2022-12-03T15:52:05.253Z,12.33
2022-12-03T15:54:31.702Z,13.53
2022-12-03T15:56:58.140Z,14.57
2022-12-03T15:59:24.971Z,12.83
2022-12-03T16:01:51.537Z,13.27
2022-12-03T16:04:18.028Z,13.37
2022-12-03T16:06:44.497Z,13.90
2022-12-03T16:09:10.971Z,12.47
2022-12-03T16:11:37.418Z,13.97
2022-12-03T16:14:03.937Z,13.97
2022-12-03T16:16:30.494Z,13.57
2022-12-03T16:18:57.095Z,13.57
2022-12-03T16:21:27.102Z,13.17
2022-12-03T16:23:55.105Z,14.13
2022-12-03T16:26:22.293Z,13.50
2022-12-03T16:28:48.736Z,14.47
2022-12-03T16:31:15.281Z,14.63
2022-12-03T16:33:41.754Z,14.20
2022-12-03T16:36:09.006Z,16.43
2022-12-03T16:38:35.562Z,15.40
2022-12-03T16:41:02.433Z,18.57
2022-12-03T16:43:28.879Z,19.87
2022-12-03T16:45:55.352Z,19.57
2022-12-03T16:48:22.591Z,18.17
2022-12-03T16:50:49.032Z,15.23
2022-12-03T16:53:15.546Z,15.33
2022-12-03T16:55:42.032Z,15.20
2022-12-03T16:58:08.500Z,16.07
2022-12-03T17:00:34.992Z,15.03
2022-12-03T17:03:01.612Z,14.73
2022-12-03T17:05:28.144Z,14.07
2022-12-03T17:07:54.691Z,14.10
2022-12-03T17:10:21.283Z,14.57
2022-12-03T17:13:08.682Z,15.27
2022-12-03T17:15:36.448Z,14.37
2022-12-03T17:18:03.490Z,13.83
2022-12-03T17:20:31.137Z,14.10
2022-12-03T17:22:58.775Z,14.60
2022-12-03T17:25:25.988Z,13.97
2022-12-03T17:27:52.472Z,13.33
2022-12-03T17:30:19.038Z,14.50
2022-12-03T17:32:45.553Z,14.47
2022-12-03T17:35:12.562Z,14.33
2022-12-03T17:37:39.108Z,14.70
2022-12-03T17:40:08.684Z,14.23
2022-12-03T17:42:35.169Z,13.80
2022-12-03T17:45:01.629Z,14.27
2022-12-03T17:47:28.110Z,14.13
2022-12-03T17:49:54.743Z,14.70
2022-12-03T17:52:21.716Z,14.27
2022-12-03T17:57:44.717Z,14.57
2022-12-03T18:00:12.199Z,14.10
2022-12-03T18:02:38.753Z,16.00
2022-12-03T18:05:05.532Z,15.10
2022-12-03T18:07:32.066Z,15.13
2022-12-03T18:09:58.677Z,14.93
2022-12-03T18:12:25.409Z,15.50
2022-12-03T18:14:51.861Z,15.63
2022-12-03T18:17:18.352Z,15.03
2022-12-03T18:19:44.796Z,16.37
2022-12-03T18:22:11.942Z,15.90
2022-12-03T18:24:38.544Z,15.00
2022-12-03T18:27:05.257Z,15.93
2022-12-03T18:29:31.808Z,13.90
2022-12-03T18:31:58.392Z,15.67
2022-12-03T18:34:24.901Z,15.33
2022-12-03T18:36:51.383Z,15.93
2022-12-03T18:39:35.340Z,14.80
2022-12-03T18:42:13.931Z,14.57
2022-12-03T18:44:43.780Z,14.47
2022-12-03T18:47:19.080Z,14.80
2022-12-03T18:49:46.125Z,14.80
2022-12-03T18:52:20.450Z,14.57
2022-12-03T18:54:47.134Z,15.90
2022-12-03T18:57:14.157Z,14.93
2022-12-03T18:59:40.787Z,13.60
2022-12-03T19:02:46.088Z,15.23
2022-12-03T19:05:28.814Z,15.20
2022-12-03T19:07:55.904Z,14.97
2022-12-03T19:10:23.951Z,18.10
2022-12-03T19:12:50.496Z,15.57
2022-12-03T19:15:17.197Z,16.03
2022-12-03T19:17:48.816Z,14.97
2022-12-03T19:20:15.345Z,14.93
2022-12-03T19:22:41.908Z,13.93
2022-12-03T19:25:08.722Z,15.53
2022-12-03T19:27:35.193Z,14.13
2022-12-03T19:30:01.652Z,14.47
2022-12-03T19:32:28.105Z,14.67
2022-12-03T19:34:54.578Z,15.00
2022-12-03T19:37:21.045Z,14.37
2022-12-03T19:39:47.526Z,14.03
2022-12-03T19:42:14.005Z,14.93
2022-12-03T19:44:40.464Z,14.97
2022-12-03T19:47:06.938Z,14.67
2022-12-03T19:49:33.506Z,15.80
2022-12-03T19:51:59.970Z,15.17
2022-12-03T19:54:26.434Z,15.37
2022-12-03T19:56:52.896Z,14.17
2022-12-03T19:59:19.364Z,15.50
2022-12-03T20:01:46.065Z,14.27
2022-12-03T20:04:13.182Z,14.13
2022-12-03T20:06:39.951Z,14.77
2022-12-03T20:09:16.877Z,15.27
2022-12-03T20:11:45.020Z,14.40
2022-12-03T20:14:15.074Z,13.93
2022-12-03T20:16:42.842Z,15.13
2022-12-03T20:19:13.960Z,15.30
2022-12-03T20:21:41.441Z,14.43
2022-12-03T20:24:12.969Z,15.20
2022-12-03T20:26:40.360Z,16.07
2022-12-03T20:29:06.805Z,15.30
2022-12-03T20:31:33.316Z,16.70
2022-12-03T20:34:02.091Z,16.10
2022-12-03T20:36:31.200Z,16.47
2022-12-03T20:39:01.321Z,17.90
2022-12-03T20:41:28.294Z,18.30
2022-12-03T20:43:55.201Z,19.10
2022-12-03T20:46:26.275Z,18.53
2022-12-03T20:48:53.464Z,18.83
2022-12-03T20:51:23.535Z,19.30
2022-12-03T20:53:50.483Z,18.93
2022-12-03T20:56:25.233Z,19.90
2022-12-03T20:58:52.805Z,19.03
2022-12-03T21:01:22.891Z,20.33
2022-12-03T21:03:51.649Z,19.00
2022-12-03T21:06:19.314Z,20.07
2022-12-03T21:08:46.110Z,19.70
2022-12-03T21:11:17.465Z,20.50
2022-12-03T21:13:45.393Z,18.17
2022-12-03T21:16:17.562Z,18.87
2022-12-03T21:18:44.799Z,19.83
2022-12-03T21:21:14.637Z,18.50
2022-12-03T21:23:42.004Z,17.93
2022-12-03T21:26:19.492Z,20.67
2022-12-03T21:28:48.609Z,19.83
2022-12-03T21:31:24.546Z,20.30
2022-12-03T21:33:54.021Z,17.90
2022-12-03T21:36:20.507Z,19.50
2022-12-03T21:38:47.555Z,18.37
2022-12-03T21:41:16.072Z,19.93
2022-12-03T21:43:43.758Z,19.40
2022-12-03T21:47:09.877Z,19.70
2022-12-03T21:49:39.584Z,19.90
2022-12-03T21:52:06.059Z,18.83
2022-12-03T21:54:32.505Z,18.07
2022-12-03T21:56:58.975Z,19.20
2022-12-03T21:59:25.422Z,18.47
2022-12-03T22:01:52.068Z,19.33
2022-12-03T22:04:18.673Z,19.20
2022-12-03T22:06:45.127Z,19.73
2022-12-03T22:09:11.597Z,20.87
2022-12-03T22:11:38.080Z,18.73
2022-12-03T22:14:06.100Z,19.70
2022-12-03T22:16:32.676Z,19.27
2022-12-03T22:18:59.238Z,19.70
2022-12-03T22:21:25.703Z,19.30
2022-12-03T22:23:52.152Z,18.73
2022-12-03T22:26:18.730Z,20.90
2022-12-03T22:28:48.249Z,23.90
2022-12-03T22:31:16.740Z,19.43
2022-12-03T22:33:47.409Z,18.10
2022-12-03T22:36:21.178Z,17.60
2022-12-03T22:38:50.081Z,18.30
2022-12-03T22:41:17.450Z,17.83
2022-12-03T22:43:45.446Z,17.77
2022-12-03T22:46:12.519Z,17.10
2022-12-03T22:48:41.968Z,18.67
2022-12-03T22:51:21.416Z,17.40
2022-12-03T22:53:52.882Z,16.77
2022-12-03T22:56:19.375Z,16.03
2022-12-03T22:58:45.835Z,16.43
2022-12-03T23:01:23.684Z,18.90
2022-12-03T23:03:50.754Z,20.27
2022-12-03T23:06:18.941Z,18.73
2022-12-03T23:08:46.306Z,17.37
2022-12-03T23:11:12.974Z,17.70
2022-12-03T23:13:40.085Z,17.30
2022-12-03T23:16:07.383Z,17.17
2022-12-03T23:18:33.832Z,17.60
2022-12-03T23:21:00.433Z,17.93
2022-12-03T23:23:27.742Z,17.50
2022-12-03T23:26:07.192Z,16.77
2022-12-03T23:28:36.952Z,18.03
2022-12-03T23:31:05.098Z,17.23
2022-12-03T23:33:37.948Z,16.57
2022-12-03T23:36:09.375Z,16.73
2022-12-03T23:38:35.873Z,18.17
2022-12-03T23:41:16.390Z,18.13
2022-12-03T23:43:42.979Z,19.10
2022-12-03T23:46:20.403Z,21.10
2022-12-03T23:48:47.055Z,18.73
2022-12-03T23:51:18.433Z,19.13
2022-12-03T23:53:45.371Z,19.50
2022-12-03T23:56:19.072Z,19.03
2022-12-03T23:58:46.312Z,18.80
